sensor_id;sensor_type;location;lat;lon;timestamp;pressure;altitude;pressure_sealevel;temperature;humidity
82951;BME280;72737;53.332;6.514;2024-01-27T00:01:43;103061.81;;;14.55;57.15
82951;BME280;72737;53.332;6.514;2024-01-27T00:04:08;103071.69;;;14.56;57.08
82951;BME280;72737;53.332;6.514;2024-01-27T00:06:33;103065.41;;;14.44;57.50
82951;BME280;72737;53.332;6.514;2024-01-27T00:08:59;103078.81;;;14.34;57.72
82951;BME280;72737;53.332;6.514;2024-01-27T00:11:24;103086.00;;;14.23;58.41
82951;BME280;72737;53.332;6.514;2024-01-27T00:13:50;103088.59;;;14.30;57.94
82951;BME280;72737;53.332;6.514;2024-01-27T00:16:15;103091.56;;;14.40;57.12
82951;BME280;72737;53.332;6.514;2024-01-27T00:18:41;103086.47;;;14.32;57.84
82951;BME280;72737;53.332;6.514;2024-01-27T00:21:07;103081.81;;;14.21;57.59
82951;BME280;72737;53.332;6.514;2024-01-27T00:23:33;103087.63;;;14.24;57.42
82951;BME280;72737;53.332;6.514;2024-01-27T00:25:59;103088.00;;;14.28;57.31
82951;BME280;72737;53.332;6.514;2024-01-27T00:28:25;103090.16;;;14.26;57.72
82951;BME280;72737;53.332;6.514;2024-01-27T00:30:50;103094.56;;;14.27;57.53
82951;BME280;72737;53.332;6.514;2024-01-27T00:33:16;103099.56;;;14.18;57.70
82951;BME280;72737;53.332;6.514;2024-01-27T00:35:41;103089.31;;;14.13;57.87
82951;BME280;72737;53.332;6.514;2024-01-27T00:38:07;103083.63;;;14.15;57.89
82951;BME280;72737;53.332;6.514;2024-01-27T00:40:32;103087.56;;;14.07;57.81
82951;BME280;72737;53.332;6.514;2024-01-27T00:42:58;103091.59;;;14.16;58.11
82951;BME280;72737;53.332;6.514;2024-01-27T00:45:24;103087.78;;;14.17;57.35
82951;BME280;72737;53.332;6.514;2024-01-27T00:47:50;103095.03;;;14.12;57.85
82951;BME280;72737;53.332;6.514;2024-01-27T00:50:16;103095.72;;;14.19;57.35
82951;BME280;72737;53.332;6.514;2024-01-27T00:52:41;103092.53;;;14.10;57.41
82951;BME280;72737;53.332;6.514;2024-01-27T00:55:07;103091.59;;;14.05;58.09
82951;BME280;72737;53.332;6.514;2024-01-27T00:57:32;103098.72;;;14.06;58.00
82951;BME280;72737;53.332;6.514;2024-01-27T00:59:58;103093.38;;;14.11;57.50
82951;BME280;72737;53.332;6.514;2024-01-27T01:02:23;103096.09;;;14.11;57.69
82951;BME280;72737;53.332;6.514;2024-01-27T01:04:49;103088.25;;;14.14;57.18
82951;BME280;72737;53.332;6.514;2024-01-27T01:07:14;103098.59;;;14.01;58.03
82951;BME280;72737;53.332;6.514;2024-01-27T01:09:40;103099.09;;;13.98;58.15
82951;BME280;72737;53.332;6.514;2024-01-27T01:12:05;103083.50;;;13.87;57.93
82951;BME280;72737;53.332;6.514;2024-01-27T01:14:31;103078.88;;;13.87;57.64
82951;BME280;72737;53.332;6.514;2024-01-27T01:16:56;103089.34;;;14.02;57.60
82951;BME280;72737;53.332;6.514;2024-01-27T01:19:22;103092.19;;;14.07;57.21
82951;BME280;72737;53.332;6.514;2024-01-27T01:21:47;103097.41;;;13.97;57.57
82951;BME280;72737;53.332;6.514;2024-01-27T01:24:12;103088.16;;;13.98;57.27
82951;BME280;72737;53.332;6.514;2024-01-27T01:26:38;103103.81;;;13.91;57.79
82951;BME280;72737;53.332;6.514;2024-01-27T01:29:03;103108.69;;;13.77;58.20
82951;BME280;72737;53.332;6.514;2024-01-27T01:31:29;103120.34;;;13.72;57.83
82951;BME280;72737;53.332;6.514;2024-01-27T01:33:54;103122.59;;;13.75;57.58
82951;BME280;72737;53.332;6.514;2024-01-27T01:36:19;103120.91;;;13.74;58.13
82951;BME280;72737;53.332;6.514;2024-01-27T01:38:45;103120.91;;;13.74;57.69
82951;BME280;72737;53.332;6.514;2024-01-27T01:41:11;103111.41;;;13.65;58.16
82951;BME280;72737;53.332;6.514;2024-01-27T01:43:36;103126.59;;;13.61;57.95
82951;BME280;72737;53.332;6.514;2024-01-27T01:46:02;103128.97;;;13.69;57.97
82951;BME280;72737;53.332;6.514;2024-01-27T01:48:29;103125.94;;;13.78;57.54
82951;BME280;72737;53.332;6.514;2024-01-27T01:50:54;103116.38;;;13.68;57.93
82951;BME280;72737;53.332;6.514;2024-01-27T01:53:21;103117.94;;;13.64;58.18
82951;BME280;72737;53.332;6.514;2024-01-27T01:55:47;103115.81;;;13.66;58.19
82951;BME280;72737;53.332;6.514;2024-01-27T01:58:12;103114.75;;;13.67;58.20
82951;BME280;72737;53.332;6.514;2024-01-27T02:00:38;103117.56;;;13.61;57.89
82951;BME280;72737;53.332;6.514;2024-01-27T02:03:03;103121.16;;;13.61;58.36
82951;BME280;72737;53.332;6.514;2024-01-27T02:05:29;103116.00;;;13.53;58.53
82951;BME280;72737;53.332;6.514;2024-01-27T02:07:56;103116.69;;;13.49;58.06
82951;BME280;72737;53.332;6.514;2024-01-27T02:10:24;103117.09;;;13.52;57.95
82951;BME280;72737;53.332;6.514;2024-01-27T02:12:49;103126.34;;;13.51;58.38
82951;BME280;72737;53.332;6.514;2024-01-27T02:15:15;103121.34;;;13.48;58.16
82951;BME280;72737;53.332;6.514;2024-01-27T02:17:41;103123.25;;;13.48;58.01
82951;BME280;72737;53.332;6.514;2024-01-27T02:20:07;103127.19;;;13.52;58.25
82951;BME280;72737;53.332;6.514;2024-01-27T02:22:36;103129.31;;;13.50;58.22
82951;BME280;72737;53.332;6.514;2024-01-27T02:25:05;103131.31;;;13.54;58.00
82951;BME280;72737;53.332;6.514;2024-01-27T02:27:30;103133.94;;;13.49;58.36
82951;BME280;72737;53.332;6.514;2024-01-27T02:29:56;103130.00;;;13.45;58.54
82951;BME280;72737;53.332;6.514;2024-01-27T02:32:21;103122.38;;;13.36;58.68
82951;BME280;72737;53.332;6.514;2024-01-27T02:34:46;103124.88;;;13.37;58.59
82951;BME280;72737;53.332;6.514;2024-01-27T02:37:12;103115.72;;;13.43;58.35
82951;BME280;72737;53.332;6.514;2024-01-27T02:39:37;103120.00;;;13.39;58.07
82951;BME280;72737;53.332;6.514;2024-01-27T02:42:04;103110.41;;;13.37;58.33
82951;BME280;72737;53.332;6.514;2024-01-27T02:44:29;103117.00;;;13.29;58.66
82951;BME280;72737;53.332;6.514;2024-01-27T02:46:55;103117.97;;;13.35;58.53
82951;BME280;72737;53.332;6.514;2024-01-27T02:49:20;103130.72;;;13.41;59.03
82951;BME280;72737;53.332;6.514;2024-01-27T02:51:45;103120.00;;;13.39;59.75
82951;BME280;72737;53.332;6.514;2024-01-27T02:54:11;103134.75;;;13.50;59.50
82951;BME280;72737;53.332;6.514;2024-01-27T02:56:36;103126.66;;;13.43;59.05
82951;BME280;72737;53.332;6.514;2024-01-27T02:59:02;103128.47;;;13.49;58.75
82951;BME280;72737;53.332;6.514;2024-01-27T03:01:27;103126.13;;;13.53;59.00
82951;BME280;72737;53.332;6.514;2024-01-27T03:03:52;103133.84;;;13.56;59.06
82951;BME280;72737;53.332;6.514;2024-01-27T03:06:18;103126.78;;;13.48;58.57
82951;BME280;72737;53.332;6.514;2024-01-27T03:08:43;103122.41;;;13.47;59.27
82951;BME280;72737;53.332;6.514;2024-01-27T03:11:08;103120.75;;;13.46;59.24
82951;BME280;72737;53.332;6.514;2024-01-27T03:13:34;103125.16;;;13.47;58.60
82951;BME280;72737;53.332;6.514;2024-01-27T03:15:59;103127.41;;;13.50;58.91
82951;BME280;72737;53.332;6.514;2024-01-27T03:18:25;103124.91;;;13.49;59.09
82951;BME280;72737;53.332;6.514;2024-01-27T03:20:50;103127.97;;;13.41;59.47
82951;BME280;72737;53.332;6.514;2024-01-27T03:23:15;103149.88;;;13.52;59.62
82951;BME280;72737;53.332;6.514;2024-01-27T03:25:41;103142.75;;;13.51;58.76
82951;BME280;72737;53.332;6.514;2024-01-27T03:28:06;103137.00;;;13.41;59.20
82951;BME280;72737;53.332;6.514;2024-01-27T03:30:32;103131.19;;;13.49;59.42
82951;BME280;72737;53.332;6.514;2024-01-27T03:32:57;103135.50;;;13.57;59.09
82951;BME280;72737;53.332;6.514;2024-01-27T03:35:22;103133.25;;;13.65;58.64
82951;BME280;72737;53.332;6.514;2024-01-27T03:37:48;103128.41;;;13.67;59.03
82951;BME280;72737;53.332;6.514;2024-01-27T03:40:14;103121.50;;;13.65;58.85
82951;BME280;72737;53.332;6.514;2024-01-27T03:42:39;103127.78;;;13.65;58.88
82951;BME280;72737;53.332;6.514;2024-01-27T03:45:05;103131.72;;;13.69;58.54
82951;BME280;72737;53.332;6.514;2024-01-27T03:47:30;103130.66;;;13.70;58.70
82951;BME280;72737;53.332;6.514;2024-01-27T03:49:56;103139.91;;;13.69;58.82
82951;BME280;72737;53.332;6.514;2024-01-27T03:52:21;103130.88;;;13.69;58.97
82951;BME280;72737;53.332;6.514;2024-01-27T03:54:46;103138.25;;;13.68;58.94
82951;BME280;72737;53.332;6.514;2024-01-27T03:57:12;103148.13;;;13.69;58.88
82951;BME280;72737;53.332;6.514;2024-01-27T03:59:40;103157.16;;;13.70;58.89
82951;BME280;72737;53.332;6.514;2024-01-27T04:02:06;103155.13;;;13.65;58.93
82951;BME280;72737;53.332;6.514;2024-01-27T04:04:31;103143.56;;;13.63;59.46
82951;BME280;72737;53.332;6.514;2024-01-27T04:06:57;103153.94;;;13.61;59.12
82951;BME280;72737;53.332;6.514;2024-01-27T04:09:23;103156.78;;;13.66;59.72
82951;BME280;72737;53.332;6.514;2024-01-27T04:11:49;103139.22;;;13.62;59.39
82951;BME280;72737;53.332;6.514;2024-01-27T04:14:14;103147.41;;;13.62;59.42
82951;BME280;72737;53.332;6.514;2024-01-27T04:16:39;103158.34;;;13.62;59.74
82951;BME280;72737;53.332;6.514;2024-01-27T04:19:05;103154.50;;;13.63;59.49
82951;BME280;72737;53.332;6.514;2024-01-27T04:21:30;103150.13;;;13.62;59.61
82951;BME280;72737;53.332;6.514;2024-01-27T04:23:56;103160.22;;;13.62;59.65
82951;BME280;72737;53.332;6.514;2024-01-27T04:26:21;103147.63;;;13.61;59.81
82951;BME280;72737;53.332;6.514;2024-01-27T04:28:46;103151.41;;;13.60;59.98
82951;BME280;72737;53.332;6.514;2024-01-27T04:31:12;103155.34;;;13.52;60.22
82951;BME280;72737;53.332;6.514;2024-01-27T04:33:37;103175.66;;;13.56;59.58
82951;BME280;72737;53.332;6.514;2024-01-27T04:36:03;103158.50;;;13.49;59.98
82951;BME280;72737;53.332;6.514;2024-01-27T04:38:28;103164.94;;;13.55;60.37
82951;BME280;72737;53.332;6.514;2024-01-27T04:40:53;103160.53;;;13.54;60.08
82951;BME280;72737;53.332;6.514;2024-01-27T04:43:19;103153.56;;;13.58;59.97
82951;BME280;72737;53.332;6.514;2024-01-27T04:45:47;103160.31;;;13.55;60.47
82951;BME280;72737;53.332;6.514;2024-01-27T04:48:14;103152.72;;;13.57;60.25
82951;BME280;72737;53.332;6.514;2024-01-27T04:50:39;103154.84;;;13.55;60.54
82951;BME280;72737;53.332;6.514;2024-01-27T04:53:05;103146.44;;;13.57;59.79
82951;BME280;72737;53.332;6.514;2024-01-27T04:55:30;103141.81;;;13.57;60.40
82951;BME280;72737;53.332;6.514;2024-01-27T04:57:56;103153.44;;;13.64;59.45
82951;BME280;72737;53.332;6.514;2024-01-27T05:00:23;103143.44;;;13.58;60.58
82951;BME280;72737;53.332;6.514;2024-01-27T05:02:50;103141.81;;;13.57;60.03
82951;BME280;72737;53.332;6.514;2024-01-27T05:05:15;103143.69;;;13.57;60.40
82951;BME280;72737;53.332;6.514;2024-01-27T05:07:41;103121.72;;;13.52;60.34
82951;BME280;72737;53.332;6.514;2024-01-27T05:10:09;103138.47;;;13.55;60.05
82951;BME280;72737;53.332;6.514;2024-01-27T05:12:35;103131.94;;;13.56;60.15
82951;BME280;72737;53.332;6.514;2024-01-27T05:15:00;103140.03;;;13.63;59.81
82951;BME280;72737;53.332;6.514;2024-01-27T05:17:26;103135.88;;;13.60;60.20
82951;BME280;72737;53.332;6.514;2024-01-27T05:19:51;103140.13;;;13.56;59.84
82951;BME280;72737;53.332;6.514;2024-01-27T05:22:16;103137.97;;;13.58;60.28
82951;BME280;72737;53.332;6.514;2024-01-27T05:24:42;103137.63;;;13.55;60.62
82951;BME280;72737;53.332;6.514;2024-01-27T05:27:07;103147.38;;;13.51;60.16
82951;BME280;72737;53.332;6.514;2024-01-27T05:29:33;103139.31;;;13.56;60.25
82951;BME280;72737;53.332;6.514;2024-01-27T05:31:58;103146.31;;;13.52;60.21
82951;BME280;72737;53.332;6.514;2024-01-27T05:34:23;103136.09;;;13.47;60.34
82951;BME280;72737;53.332;6.514;2024-01-27T05:36:49;103139.31;;;13.56;60.39
82951;BME280;72737;53.332;6.514;2024-01-27T05:39:14;103151.19;;;13.61;59.77
82951;BME280;72737;53.332;6.514;2024-01-27T05:41:40;103144.84;;;13.49;60.45
82951;BME280;72737;53.332;6.514;2024-01-27T05:44:05;103151.50;;;13.53;60.40
82951;BME280;72737;53.332;6.514;2024-01-27T05:46:31;103151.06;;;13.56;60.33
82951;BME280;72737;53.332;6.514;2024-01-27T05:48:56;103155.59;;;13.62;60.29
82951;BME280;72737;53.332;6.514;2024-01-27T05:51:27;103151.06;;;13.56;60.04
82951;BME280;72737;53.332;6.514;2024-01-27T05:53:52;103143.09;;;13.55;60.63
82951;BME280;72737;53.332;6.514;2024-01-27T05:56:18;103154.38;;;13.58;60.41
82951;BME280;72737;53.332;6.514;2024-01-27T05:58:47;103156.19;;;13.64;60.24
82951;BME280;72737;53.332;6.514;2024-01-27T06:01:13;103157.25;;;13.63;59.83
82951;BME280;72737;53.332;6.514;2024-01-27T06:03:41;103164.84;;;13.61;60.32
82951;BME280;72737;53.332;6.514;2024-01-27T06:06:07;103168.88;;;13.59;60.05
82951;BME280;72737;53.332;6.514;2024-01-27T06:08:33;103169.84;;;13.64;59.75
82951;BME280;72737;53.332;6.514;2024-01-27T06:10:58;103183.50;;;13.64;59.72
82951;BME280;72737;53.332;6.514;2024-01-27T06:13:23;103192.53;;;13.65;60.10
82951;BME280;72737;53.332;6.514;2024-01-27T06:15:49;103190.03;;;13.63;60.25
82951;BME280;72737;53.332;6.514;2024-01-27T06:18:15;103193.16;;;13.67;60.23
82951;BME280;72737;53.332;6.514;2024-01-27T06:20:41;103162.44;;;13.53;60.11
82951;BME280;72737;53.332;6.514;2024-01-27T06:23:06;103188.75;;;13.66;60.14
82951;BME280;72737;53.332;6.514;2024-01-27T06:25:32;103185.66;;;13.62;60.04
82951;BME280;72737;53.332;6.514;2024-01-27T06:27:57;103183.97;;;13.61;59.70
82951;BME280;72737;53.332;6.514;2024-01-27T06:30:23;103187.16;;;13.58;60.01
82951;BME280;72737;53.332;6.514;2024-01-27T06:32:48;103190.41;;;13.67;59.63
82951;BME280;72737;53.332;6.514;2024-01-27T06:35:14;103183.38;;;13.59;59.99
82951;BME280;72737;53.332;6.514;2024-01-27T06:37:39;103199.06;;;13.64;59.98
82951;BME280;72737;53.332;6.514;2024-01-27T06:40:05;103194.22;;;13.66;59.57
82951;BME280;72737;53.332;6.514;2024-01-27T06:42:32;103189.81;;;13.65;59.94
82951;BME280;72737;53.332;6.514;2024-01-27T06:44:57;103205.13;;;13.66;59.43
82951;BME280;72737;53.332;6.514;2024-01-27T06:47:22;103191.13;;;13.62;59.83
82951;BME280;72737;53.332;6.514;2024-01-27T06:49:48;103191.34;;;13.61;59.62
82951;BME280;72737;53.332;6.514;2024-01-27T06:52:13;103207.88;;;13.66;59.48
82951;BME280;72737;53.332;6.514;2024-01-27T06:54:38;103197.63;;;13.61;59.94
82951;BME280;72737;53.332;6.514;2024-01-27T06:57:17;103202.19;;;13.67;59.38
82951;BME280;72737;53.332;6.514;2024-01-27T06:59:43;103213.13;;;13.67;59.92
82951;BME280;72737;53.332;6.514;2024-01-27T07:02:09;103200.38;;;13.61;59.87
82951;BME280;72737;53.332;6.514;2024-01-27T07:04:39;103204.66;;;13.57;59.71
82951;BME280;72737;53.332;6.514;2024-01-27T07:07:04;103211.44;;;13.66;59.74
82951;BME280;72737;53.332;6.514;2024-01-27T07:09:29;103212.97;;;13.62;60.02
82951;BME280;72737;53.332;6.514;2024-01-27T07:11:55;103210.69;;;13.59;59.65
82951;BME280;72737;53.332;6.514;2024-01-27T07:14:20;103194.56;;;13.58;59.73
82951;BME280;72737;53.332;6.514;2024-01-27T07:16:46;103209.50;;;13.55;59.55
82951;BME280;72737;53.332;6.514;2024-01-27T07:19:11;103211.16;;;13.56;59.73
82951;BME280;72737;53.332;6.514;2024-01-27T07:21:36;103218.88;;;13.59;59.30
82951;BME280;72737;53.332;6.514;2024-01-27T07:24:02;103207.38;;;13.57;59.67
82951;BME280;72737;53.332;6.514;2024-01-27T07:26:28;103214.88;;;13.62;59.40
82951;BME280;72737;53.332;6.514;2024-01-27T07:28:54;103221.16;;;13.62;59.93
82951;BME280;72737;53.332;6.514;2024-01-27T07:31:20;103208.34;;;13.63;59.74
82951;BME280;72737;53.332;6.514;2024-01-27T07:33:45;103212.53;;;13.77;59.95
82951;BME280;72737;53.332;6.514;2024-01-27T07:36:10;103202.31;;;13.84;59.49
82951;BME280;72737;53.332;6.514;2024-01-27T07:38:36;103216.25;;;13.94;59.59
82951;BME280;72737;53.332;6.514;2024-01-27T07:41:02;103212.22;;;13.97;59.15
82951;BME280;72737;53.332;6.514;2024-01-27T07:43:27;103206.50;;;13.98;59.37
82951;BME280;72737;53.332;6.514;2024-01-27T07:45:53;103206.16;;;13.95;59.22
82951;BME280;72737;53.332;6.514;2024-01-27T07:48:19;103216.81;;;13.85;59.83
82951;BME280;72737;53.332;6.514;2024-01-27T07:50:45;103220.59;;;13.72;59.73
82951;BME280;72737;53.332;6.514;2024-01-27T07:53:14;103217.03;;;13.71;59.73
82951;BME280;72737;53.332;6.514;2024-01-27T07:55:39;103210.03;;;13.75;59.57
82951;BME280;72737;53.332;6.514;2024-01-27T07:58:05;103219.06;;;13.76;59.67
82951;BME280;72737;53.332;6.514;2024-01-27T08:00:31;103215.50;;;13.75;59.32
82951;BME280;72737;53.332;6.514;2024-01-27T08:02:57;103230.34;;;13.80;59.20
82951;BME280;72737;53.332;6.514;2024-01-27T08:05:23;103240.72;;;13.78;59.07
82951;BME280;72737;53.332;6.514;2024-01-27T08:07:48;103237.38;;;13.75;59.01
82951;BME280;72737;53.332;6.514;2024-01-27T08:10:14;103236.09;;;13.78;58.90
82951;BME280;72737;53.332;6.514;2024-01-27T08:12:39;103252.34;;;13.85;58.85
82951;BME280;72737;53.332;6.514;2024-01-27T08:15:05;103243.16;;;13.67;58.76
82951;BME280;72737;53.332;6.514;2024-01-27T08:17:31;103253.81;;;13.87;59.46
82951;BME280;72737;53.332;6.514;2024-01-27T08:19:56;103243.59;;;13.83;58.60
82951;BME280;72737;53.332;6.514;2024-01-27T08:22:21;103255.56;;;13.82;58.40
82951;BME280;72737;53.332;6.514;2024-01-27T08:24:47;103261.75;;;13.77;58.98
82951;BME280;72737;53.332;6.514;2024-01-27T08:27:12;103258.47;;;13.68;59.19
82951;BME280;72737;53.332;6.514;2024-01-27T08:29:38;103267.06;;;13.72;58.71
82951;BME280;72737;53.332;6.514;2024-01-27T08:32:03;103251.81;;;13.64;59.42
82951;BME280;72737;53.332;6.514;2024-01-27T08:34:29;103250.81;;;13.77;58.51
82951;BME280;72737;53.332;6.514;2024-01-27T08:37:00;103246.53;;;13.81;58.45
82951;BME280;72737;53.332;6.514;2024-01-27T08:39:25;103247.94;;;13.84;58.56
82951;BME280;72737;53.332;6.514;2024-01-27T08:41:51;103251.53;;;13.84;58.98
82951;BME280;72737;53.332;6.514;2024-01-27T08:44:16;103244.38;;;13.83;58.66
82951;BME280;72737;53.332;6.514;2024-01-27T08:46:42;103249.50;;;13.80;58.85
82951;BME280;72737;53.332;6.514;2024-01-27T08:49:07;103235.25;;;13.78;58.53
82951;BME280;72737;53.332;6.514;2024-01-27T08:51:32;103233.72;;;13.82;58.83
82951;BME280;72737;53.332;6.514;2024-01-27T08:53:58;103236.44;;;13.82;58.24
82951;BME280;72737;53.332;6.514;2024-01-27T08:56:23;103249.03;;;13.83;58.78
82951;BME280;72737;53.332;6.514;2024-01-27T08:58:49;103233.09;;;13.80;58.67
82951;BME280;72737;53.332;6.514;2024-01-27T09:01:16;103238.34;;;13.81;58.68
82951;BME280;72737;53.332;6.514;2024-01-27T09:03:41;103235.81;;;13.80;58.49
82951;BME280;72737;53.332;6.514;2024-01-27T09:06:07;103236.44;;;13.82;58.14
82951;BME280;72737;53.332;6.514;2024-01-27T09:08:33;103237.28;;;13.82;58.10
82951;BME280;72737;53.332;6.514;2024-01-27T09:11:00;103249.50;;;13.80;58.25
82951;BME280;72737;53.332;6.514;2024-01-27T09:13:25;103242.34;;;13.79;58.29
82951;BME280;72737;53.332;6.514;2024-01-27T09:15:52;103244.63;;;13.82;58.00
82951;BME280;72737;53.332;6.514;2024-01-27T09:18:17;103222.38;;;13.66;57.88
82951;BME280;72737;53.332;6.514;2024-01-27T09:20:42;103245.91;;;13.79;57.80
82951;BME280;72737;53.332;6.514;2024-01-27T09:23:08;103250.81;;;13.77;57.90
82951;BME280;72737;53.332;6.514;2024-01-27T09:25:33;103254.25;;;13.72;58.53
82951;BME280;72737;53.332;6.514;2024-01-27T09:27:59;103266.81;;;13.73;57.99
82951;BME280;72737;53.332;6.514;2024-01-27T09:30:26;103261.13;;;13.75;57.95
82951;BME280;72737;53.332;6.514;2024-01-27T09:32:51;103262.56;;;13.78;58.02
82951;BME280;72737;53.332;6.514;2024-01-27T09:35:17;103266.50;;;13.82;57.74
82951;BME280;72737;53.332;6.514;2024-01-27T09:37:43;103267.78;;;13.79;57.56
82951;BME280;72737;53.332;6.514;2024-01-27T09:40:10;103279.56;;;13.80;57.75
82951;BME280;72737;53.332;6.514;2024-01-27T09:42:37;103273.03;;;13.81;57.49
82951;BME280;72737;53.332;6.514;2024-01-27T09:45:05;103281.59;;;13.84;57.88
82951;BME280;72737;53.332;6.514;2024-01-27T09:47:30;103270.44;;;13.86;57.94
82951;BME280;72737;53.332;6.514;2024-01-27T09:49:56;103269.22;;;13.82;57.76
82951;BME280;72737;53.332;6.514;2024-01-27T09:52:22;103258.31;;;13.82;57.74
82951;BME280;72737;53.332;6.514;2024-01-27T09:54:47;103257.38;;;13.88;57.80
82951;BME280;72737;53.332;6.514;2024-01-27T09:57:13;103258.44;;;13.87;57.83
82951;BME280;72737;53.332;6.514;2024-01-27T09:59:41;103254.03;;;13.86;57.51
82951;BME280;72737;53.332;6.514;2024-01-27T10:02:11;103261.16;;;13.87;57.54
82951;BME280;72737;53.332;6.514;2024-01-27T10:04:37;103271.63;;;13.90;57.26
82951;BME280;72737;53.332;6.514;2024-01-27T10:07:03;103269.59;;;13.85;57.82
82951;BME280;72737;53.332;6.514;2024-01-27T10:09:29;103267.44;;;13.75;57.71
82951;BME280;72737;53.332;6.514;2024-01-27T10:11:55;103271.72;;;13.83;57.88
82951;BME280;72737;53.332;6.514;2024-01-27T10:14:21;103275.53;;;13.82;57.72
82951;BME280;72737;53.332;6.514;2024-01-27T10:16:47;103279.69;;;13.85;57.31
82951;BME280;72737;53.332;6.514;2024-01-27T10:19:18;103274.84;;;13.87;57.45
82951;BME280;72737;53.332;6.514;2024-01-27T10:21:47;103283.75;;;13.94;57.53
82951;BME280;72737;53.332;6.514;2024-01-27T10:24:13;103291.38;;;13.92;57.10
82951;BME280;72737;53.332;6.514;2024-01-27T10:26:39;103281.84;;;13.83;57.45
82951;BME280;72737;53.332;6.514;2024-01-27T10:29:04;103289.34;;;13.87;57.25
82951;BME280;72737;53.332;6.514;2024-01-27T10:31:32;103290.53;;;13.91;57.06
82951;BME280;72737;53.332;6.514;2024-01-27T10:33:58;103296.22;;;13.90;57.13
82951;BME280;72737;53.332;6.514;2024-01-27T10:36:24;103296.38;;;13.95;56.84
82951;BME280;72737;53.332;6.514;2024-01-27T10:38:51;103299.31;;;13.93;57.56
82951;BME280;72737;53.332;6.514;2024-01-27T10:41:24;103293.06;;;13.93;57.36
82951;BME280;72737;53.332;6.514;2024-01-27T10:43:53;103284.47;;;13.89;57.35
82951;BME280;72737;53.332;6.514;2024-01-27T10:46:21;103300.41;;;13.92;56.86
82951;BME280;72737;53.332;6.514;2024-01-27T10:48:51;103293.06;;;13.93;56.83
82951;BME280;72737;53.332;6.514;2024-01-27T10:51:26;103285.53;;;13.88;57.43
82951;BME280;72737;53.332;6.514;2024-01-27T10:54:00;103286.34;;;13.89;57.45
82951;BME280;72737;53.332;6.514;2024-01-27T10:56:27;103283.31;;;13.97;57.58
82951;BME280;72737;53.332;6.514;2024-01-27T10:58:53;103283.91;;;13.99;56.89
82951;BME280;72737;53.332;6.514;2024-01-27T11:01:20;103281.53;;;14.02;57.00
82951;BME280;72737;53.332;6.514;2024-01-27T11:03:48;103292.38;;;14.09;56.83
82951;BME280;72737;53.332;6.514;2024-01-27T11:06:14;103290.47;;;14.09;56.71
82951;BME280;72737;53.332;6.514;2024-01-27T11:08:41;103286.06;;;14.08;57.00
82951;BME280;72737;53.332;6.514;2024-01-27T11:11:07;103282.25;;;14.09;57.05
82951;BME280;72737;53.332;6.514;2024-01-27T11:13:33;103287.38;;;14.06;57.12
82951;BME280;72737;53.332;6.514;2024-01-27T11:15:59;103281.44;;;14.09;56.97
82951;BME280;72737;53.332;6.514;2024-01-27T11:18:25;103294.03;;;14.10;56.81
82951;BME280;72737;53.332;6.514;2024-01-27T11:20:54;103294.97;;;14.04;57.39
82951;BME280;72737;53.332;6.514;2024-01-27T11:23:20;103304.84;;;14.05;57.12
82951;BME280;72737;53.332;6.514;2024-01-27T11:25:45;103308.41;;;14.05;57.15
82951;BME280;72737;53.332;6.514;2024-01-27T11:28:15;103302.47;;;14.08;57.09
82951;BME280;72737;53.332;6.514;2024-01-27T11:30:47;103314.16;;;14.15;57.35
82951;BME280;72737;53.332;6.514;2024-01-27T11:33:13;103312.03;;;14.17;57.43
82951;BME280;72737;53.332;6.514;2024-01-27T11:35:39;103307.53;;;14.23;57.33
82951;BME280;72737;53.332;6.514;2024-01-27T11:38:04;103299.41;;;14.16;57.12
82951;BME280;72737;53.332;6.514;2024-01-27T11:40:30;103306.31;;;14.19;57.21
82951;BME280;72737;53.332;6.514;2024-01-27T11:42:56;103296.69;;;14.16;57.03
82951;BME280;72737;53.332;6.514;2024-01-27T11:45:22;103299.63;;;14.15;57.08
82951;BME280;72737;53.332;6.514;2024-01-27T11:47:47;103297.88;;;14.21;57.11
82951;BME280;72737;53.332;6.514;2024-01-27T11:50:13;103288.38;;;14.23;57.18
82951;BME280;72737;53.332;6.514;2024-01-27T11:52:38;103296.72;;;14.28;57.42
82951;BME280;72737;53.332;6.514;2024-01-27T11:55:04;103301.72;;;14.31;56.77
82951;BME280;72737;53.332;6.514;2024-01-27T11:57:29;103294.34;;;14.32;57.47
82951;BME280;72737;53.332;6.514;2024-01-27T11:59:55;103285.28;;;14.31;56.72
82951;BME280;72737;53.332;6.514;2024-01-27T12:02:21;103279.81;;;14.31;56.95
82951;BME280;72737;53.332;6.514;2024-01-27T12:04:49;103288.19;;;14.36;56.98
82951;BME280;72737;53.332;6.514;2024-01-27T12:07:15;103294.00;;;14.40;57.18
82951;BME280;72737;53.332;6.514;2024-01-27T12:09:43;103296.16;;;14.38;57.22
82951;BME280;72737;53.332;6.514;2024-01-27T12:12:09;103294.28;;;14.38;57.22
82951;BME280;72737;53.332;6.514;2024-01-27T12:14:39;103294.50;;;14.37;56.90
82951;BME280;72737;53.332;6.514;2024-01-27T12:17:05;103299.03;;;14.43;56.98
82951;BME280;72737;53.332;6.514;2024-01-27T12:19:33;103310.31;;;14.46;56.97
82951;BME280;72737;53.332;6.514;2024-01-27T12:21:58;103300.22;;;14.47;56.93
82951;BME280;72737;53.332;6.514;2024-01-27T12:24:23;103306.88;;;14.51;57.24
82951;BME280;72737;53.332;6.514;2024-01-27T12:26:49;103307.09;;;14.49;56.92
82951;BME280;72737;53.332;6.514;2024-01-27T12:29:14;103304.38;;;14.49;56.54
82951;BME280;72737;53.332;6.514;2024-01-27T12:31:40;103310.44;;;14.51;57.01
82951;BME280;72737;53.332;6.514;2024-01-27T12:34:07;103313.91;;;14.47;56.73
82951;BME280;72737;53.332;6.514;2024-01-27T12:36:32;103322.94;;;14.47;56.69
82951;BME280;72737;53.332;6.514;2024-01-27T12:38:59;103320.66;;;14.44;56.92
82951;BME280;72737;53.332;6.514;2024-01-27T12:41:26;103308.66;;;14.45;56.98
82951;BME280;72737;53.332;6.514;2024-01-27T12:43:53;103306.28;;;14.49;56.67